sensor_id;sensor_type;location;lat;lon;timestamp;temperature;humidity
25024;DHT22;13033;50.936;5.334;2023-04-19T00:00:34;11.90;99.90
25024;DHT22;13033;50.936;5.334;2023-04-19T00:03:01;11.90;99.90
25024;DHT22;13033;50.936;5.334;2023-04-19T00:05:30;11.90;99.90
25024;DHT22;13033;50.936;5.334;2023-04-19T00:07:56;11.70;99.90
25024;DHT22;13033;50.936;5.334;2023-04-19T00:10:22;11.50;99.90
25024;DHT22;13033;50.936;5.334;2023-04-19T00:12:47;11.60;99.90
25024;DHT22;13033;50.936;5.334;2023-04-19T00:15:13;11.60;99.90
25024;DHT22;13033;50.936;5.334;2023-04-19T00:17:39;11.70;99.90
25024;DHT22;13033;50.936;5.334;2023-04-19T00:20:05;11.80;99.90
25024;DHT22;13033;50.936;5.334;2023-04-19T00:22:31;11.80;99.90
25024;DHT22;13033;50.936;5.334;2023-04-19T00:24:57;11.70;99.90
25024;DHT22;13033;50.936;5.334;2023-04-19T00:27:22;11.60;99.90
25024;DHT22;13033;50.936;5.334;2023-04-19T00:29:48;11.70;99.90
25024;DHT22;13033;50.936;5.334;2023-04-19T00:32:14;11.70;99.90
25024;DHT22;13033;50.936;5.334;2023-04-19T00:34:41;11.80;99.90
25024;DHT22;13033;50.936;5.334;2023-04-19T00:37:07;11.80;99.90
25024;DHT22;13033;50.936;5.334;2023-04-19T00:39:33;11.70;99.90
25024;DHT22;13033;50.936;5.334;2023-04-19T00:41:58;11.80;99.90
25024;DHT22;13033;50.936;5.334;2023-04-19T00:44:26;11.60;99.90
25024;DHT22;13033;50.936;5.334;2023-04-19T00:46:52;11.60;99.90
25024;DHT22;13033;50.936;5.334;2023-04-19T00:49:19;11.60;99.90
25024;DHT22;13033;50.936;5.334;2023-04-19T00:51:46;11.70;99.90
25024;DHT22;13033;50.936;5.334;2023-04-19T00:54:13;11.60;99.90
25024;DHT22;13033;50.936;5.334;2023-04-19T00:56:39;11.70;99.90
25024;DHT22;13033;50.936;5.334;2023-04-19T00:59:06;11.70;99.90
25024;DHT22;13033;50.936;5.334;2023-04-19T01:01:32;11.70;99.90
25024;DHT22;13033;50.936;5.334;2023-04-19T01:03:59;11.80;99.90
25024;DHT22;13033;50.936;5.334;2023-04-19T01:06:29;11.80;99.90
25024;DHT22;13033;50.936;5.334;2023-04-19T01:08:55;11.70;99.90
25024;DHT22;13033;50.936;5.334;2023-04-19T01:11:24;11.90;99.90
25024;DHT22;13033;50.936;5.334;2023-04-19T01:13:50;11.80;99.90
25024;DHT22;13033;50.936;5.334;2023-04-19T01:16:16;11.90;99.90
25024;DHT22;13033;50.936;5.334;2023-04-19T01:18:42;11.90;99.90
25024;DHT22;13033;50.936;5.334;2023-04-19T01:21:07;11.90;99.90
25024;DHT22;13033;50.936;5.334;2023-04-19T01:23:34;12.00;99.90
25024;DHT22;13033;50.936;5.334;2023-04-19T01:26:03;12.10;99.90
25024;DHT22;13033;50.936;5.334;2023-04-19T01:28:29;12.10;99.90
25024;DHT22;13033;50.936;5.334;2023-04-19T01:30:55;12.10;99.90
25024;DHT22;13033;50.936;5.334;2023-04-19T01:33:21;12.20;99.90
25024;DHT22;13033;50.936;5.334;2023-04-19T01:35:47;12.20;99.90
25024;DHT22;13033;50.936;5.334;2023-04-19T01:38:13;12.10;99.90
25024;DHT22;13033;50.936;5.334;2023-04-19T01:40:39;12.20;99.90
25024;DHT22;13033;50.936;5.334;2023-04-19T01:43:06;12.10;99.90
25024;DHT22;13033;50.936;5.334;2023-04-19T01:45:32;12.00;99.90
25024;DHT22;13033;50.936;5.334;2023-04-19T01:48:01;12.00;99.90
25024;DHT22;13033;50.936;5.334;2023-04-19T01:50:29;11.90;99.90
25024;DHT22;13033;50.936;5.334;2023-04-19T01:52:55;11.90;99.90
25024;DHT22;13033;50.936;5.334;2023-04-19T01:55:20;11.90;99.90
25024;DHT22;13033;50.936;5.334;2023-04-19T01:57:46;12.00;99.90
25024;DHT22;13033;50.936;5.334;2023-04-19T02:00:12;12.10;99.90
25024;DHT22;13033;50.936;5.334;2023-04-19T02:02:38;12.10;99.90
25024;DHT22;13033;50.936;5.334;2023-04-19T02:05:07;12.20;99.90
25024;DHT22;13033;50.936;5.334;2023-04-19T02:07:33;12.20;99.90
25024;DHT22;13033;50.936;5.334;2023-04-19T02:09:58;12.10;99.90
25024;DHT22;13033;50.936;5.334;2023-04-19T02:12:28;12.10;99.90
25024;DHT22;13033;50.936;5.334;2023-04-19T02:14:55;12.00;99.90
25024;DHT22;13033;50.936;5.334;2023-04-19T02:17:24;12.10;99.90
25024;DHT22;13033;50.936;5.334;2023-04-19T02:19:50;12.10;99.90
25024;DHT22;13033;50.936;5.334;2023-04-19T02:22:16;12.30;99.90
25024;DHT22;13033;50.936;5.334;2023-04-19T02:24:42;12.30;99.90
25024;DHT22;13033;50.936;5.334;2023-04-19T02:27:07;12.40;99.90
25024;DHT22;13033;50.936;5.334;2023-04-19T02:29:33;12.40;99.90
25024;DHT22;13033;50.936;5.334;2023-04-19T02:31:59;12.40;99.90
25024;DHT22;13033;50.936;5.334;2023-04-19T02:34:26;12.50;99.90
25024;DHT22;13033;50.936;5.334;2023-04-19T02:36:52;12.50;99.90
25024;DHT22;13033;50.936;5.334;2023-04-19T02:39:17;12.50;99.90
25024;DHT22;13033;50.936;5.334;2023-04-19T02:41:43;12.50;99.90
25024;DHT22;13033;50.936;5.334;2023-04-19T02:44:09;12.50;99.90
25024;DHT22;13033;50.936;5.334;2023-04-19T02:46:35;12.60;99.90
25024;DHT22;13033;50.936;5.334;2023-04-19T02:49:00;12.60;99.90
25024;DHT22;13033;50.936;5.334;2023-04-19T02:51:26;12.60;99.90
25024;DHT22;13033;50.936;5.334;2023-04-19T02:53:52;12.60;99.90
25024;DHT22;13033;50.936;5.334;2023-04-19T02:56:17;12.50;99.90
25024;DHT22;13033;50.936;5.334;2023-04-19T02:58:43;12.40;99.90
25024;DHT22;13033;50.936;5.334;2023-04-19T03:01:09;12.40;99.90
25024;DHT22;13033;50.936;5.334;2023-04-19T03:03:35;12.40;99.90
25024;DHT22;13033;50.936;5.334;2023-04-19T03:06:01;12.40;99.90
25024;DHT22;13033;50.936;5.334;2023-04-19T03:08:27;12.40;99.90
25024;DHT22;13033;50.936;5.334;2023-04-19T03:10:53;12.20;99.90
25024;DHT22;13033;50.936;5.334;2023-04-19T03:13:19;12.10;99.90
25024;DHT22;13033;50.936;5.334;2023-04-19T03:15:45;11.90;99.90
25024;DHT22;13033;50.936;5.334;2023-04-19T03:18:11;11.90;99.90
25024;DHT22;13033;50.936;5.334;2023-04-19T03:20:37;12.00;99.90
25024;DHT22;13033;50.936;5.334;2023-04-19T03:23:03;11.70;99.90
25024;DHT22;13033;50.936;5.334;2023-04-19T03:25:28;11.70;99.90
25024;DHT22;13033;50.936;5.334;2023-04-19T03:27:55;11.60;99.90
25024;DHT22;13033;50.936;5.334;2023-04-19T03:30:21;11.60;99.90
25024;DHT22;13033;50.936;5.334;2023-04-19T03:32:47;11.70;99.90
25024;DHT22;13033;50.936;5.334;2023-04-19T03:35:12;11.50;99.90
25024;DHT22;13033;50.936;5.334;2023-04-19T03:37:38;11.40;99.90
25024;DHT22;13033;50.936;5.334;2023-04-19T03:40:04;11.40;99.90
25024;DHT22;13033;50.936;5.334;2023-04-19T03:42:30;11.30;99.90
25024;DHT22;13033;50.936;5.334;2023-04-19T03:44:56;11.30;99.90
25024;DHT22;13033;50.936;5.334;2023-04-19T03:47:21;11.20;99.90
25024;DHT22;13033;50.936;5.334;2023-04-19T03:49:47;11.20;99.90
25024;DHT22;13033;50.936;5.334;2023-04-19T03:52:13;11.30;99.90
25024;DHT22;13033;50.936;5.334;2023-04-19T03:54:38;11.30;99.90
25024;DHT22;13033;50.936;5.334;2023-04-19T03:57:04;11.30;99.90
25024;DHT22;13033;50.936;5.334;2023-04-19T03:59:30;11.10;99.90
25024;DHT22;13033;50.936;5.334;2023-04-19T04:01:56;11.10;99.90
25024;DHT22;13033;50.936;5.334;2023-04-19T04:04:21;11.10;99.90
25024;DHT22;13033;50.936;5.334;2023-04-19T04:06:47;11.20;99.90
25024;DHT22;13033;50.936;5.334;2023-04-19T04:09:13;11.20;99.90
25024;DHT22;13033;50.936;5.334;2023-04-19T04:11:38;11.20;99.90
25024;DHT22;13033;50.936;5.334;2023-04-19T04:14:05;11.20;99.90
25024;DHT22;13033;50.936;5.334;2023-04-19T04:16:31;11.10;99.90
25024;DHT22;13033;50.936;5.334;2023-04-19T04:18:57;11.20;99.90
25024;DHT22;13033;50.936;5.334;2023-04-19T04:21:22;11.30;99.90
25024;DHT22;13033;50.936;5.334;2023-04-19T04:23:49;11.30;99.90
25024;DHT22;13033;50.936;5.334;2023-04-19T04:26:14;11.30;99.90
25024;DHT22;13033;50.936;5.334;2023-04-19T04:28:40;11.30;99.90
25024;DHT22;13033;50.936;5.334;2023-04-19T04:31:06;11.50;99.90
25024;DHT22;13033;50.936;5.334;2023-04-19T04:33:32;11.50;99.90
25024;DHT22;13033;50.936;5.334;2023-04-19T04:35:58;11.60;99.90
25024;DHT22;13033;50.936;5.334;2023-04-19T04:38:24;11.60;99.90
25024;DHT22;13033;50.936;5.334;2023-04-19T04:40:51;11.60;99.90
25024;DHT22;13033;50.936;5.334;2023-04-19T04:43:23;11.70;99.90
25024;DHT22;13033;50.936;5.334;2023-04-19T04:45:50;11.80;99.90
25024;DHT22;13033;50.936;5.334;2023-04-19T04:48:16;11.70;99.90
25024;DHT22;13033;50.936;5.334;2023-04-19T04:50:42;11.70;99.90
25024;DHT22;13033;50.936;5.334;2023-04-19T04:53:08;11.80;99.90
25024;DHT22;13033;50.936;5.334;2023-04-19T04:55:34;11.90;99.90
25024;DHT22;13033;50.936;5.334;2023-04-19T04:58:00;11.90;99.90
25024;DHT22;13033;50.936;5.334;2023-04-19T05:00:26;11.90;99.90
25024;DHT22;13033;50.936;5.334;2023-04-19T05:02:52;11.80;99.90
25024;DHT22;13033;50.936;5.334;2023-04-19T05:05:17;11.90;99.90
25024;DHT22;13033;50.936;5.334;2023-04-19T05:07:43;12.00;99.90
25024;DHT22;13033;50.936;5.334;2023-04-19T05:10:09;12.10;99.90
25024;DHT22;13033;50.936;5.334;2023-04-19T05:12:36;12.10;99.90
25024;DHT22;13033;50.936;5.334;2023-04-19T05:15:02;12.10;99.90
25024;DHT22;13033;50.936;5.334;2023-04-19T05:17:28;12.00;99.90
25024;DHT22;13033;50.936;5.334;2023-04-19T05:19:53;11.90;99.90
25024;DHT22;13033;50.936;5.334;2023-04-19T05:22:19;12.20;99.90
25024;DHT22;13033;50.936;5.334;2023-04-19T05:24:44;12.20;99.90
25024;DHT22;13033;50.936;5.334;2023-04-19T05:27:11;12.20;99.90
25024;DHT22;13033;50.936;5.334;2023-04-19T05:29:37;12.30;99.90
25024;DHT22;13033;50.936;5.334;2023-04-19T05:32:03;12.40;99.90
25024;DHT22;13033;50.936;5.334;2023-04-19T05:34:28;12.20;99.90
25024;DHT22;13033;50.936;5.334;2023-04-19T05:36:54;12.30;99.90
25024;DHT22;13033;50.936;5.334;2023-04-19T05:39:20;12.30;99.90
25024;DHT22;13033;50.936;5.334;2023-04-19T05:41:46;12.30;99.90
25024;DHT22;13033;50.936;5.334;2023-04-19T05:44:12;12.30;99.90
25024;DHT22;13033;50.936;5.334;2023-04-19T05:46:38;12.50;99.90
25024;DHT22;13033;50.936;5.334;2023-04-19T05:49:03;12.40;99.90
25024;DHT22;13033;50.936;5.334;2023-04-19T05:51:29;12.50;99.90
25024;DHT22;13033;50.936;5.334;2023-04-19T05:53:56;12.60;99.90
25024;DHT22;13033;50.936;5.334;2023-04-19T05:56:21;12.70;99.90
25024;DHT22;13033;50.936;5.334;2023-04-19T05:58:47;12.60;99.90
25024;DHT22;13033;50.936;5.334;2023-04-19T06:01:13;12.60;99.90
25024;DHT22;13033;50.936;5.334;2023-04-19T06:03:38;12.60;99.90
25024;DHT22;13033;50.936;5.334;2023-04-19T06:06:04;12.60;99.90
25024;DHT22;13033;50.936;5.334;2023-04-19T06:08:29;12.60;99.90
25024;DHT22;13033;50.936;5.334;2023-04-19T06:10:56;12.80;99.90
25024;DHT22;13033;50.936;5.334;2023-04-19T06:13:22;12.90;99.90
25024;DHT22;13033;50.936;5.334;2023-04-19T06:15:47;12.90;99.90
25024;DHT22;13033;50.936;5.334;2023-04-19T06:18:13;13.00;99.90
25024;DHT22;13033;50.936;5.334;2023-04-19T06:20:39;12.90;99.90
25024;DHT22;13033;50.936;5.334;2023-04-19T06:23:05;12.80;99.90
25024;DHT22;13033;50.936;5.334;2023-04-19T06:25:31;12.90;99.90
25024;DHT22;13033;50.936;5.334;2023-04-19T06:27:57;13.00;99.90
25024;DHT22;13033;50.936;5.334;2023-04-19T06:30:22;13.10;99.90
25024;DHT22;13033;50.936;5.334;2023-04-19T06:32:48;13.10;99.90
25024;DHT22;13033;50.936;5.334;2023-04-19T06:35:14;13.20;99.90
25024;DHT22;13033;50.936;5.334;2023-04-19T06:37:40;13.30;99.90
25024;DHT22;13033;50.936;5.334;2023-04-19T06:40:06;13.40;99.90
25024;DHT22;13033;50.936;5.334;2023-04-19T06:42:33;13.50;99.90
25024;DHT22;13033;50.936;5.334;2023-04-19T06:44:59;13.70;99.90
25024;DHT22;13033;50.936;5.334;2023-04-19T06:47:25;13.70;99.90
25024;DHT22;13033;50.936;5.334;2023-04-19T06:49:51;13.80;99.90
25024;DHT22;13033;50.936;5.334;2023-04-19T06:52:17;13.90;99.90
25024;DHT22;13033;50.936;5.334;2023-04-19T06:54:47;13.90;99.90
25024;DHT22;13033;50.936;5.334;2023-04-19T06:57:13;13.80;99.90
25024;DHT22;13033;50.936;5.334;2023-04-19T06:59:39;13.90;99.90
25024;DHT22;13033;50.936;5.334;2023-04-19T07:02:05;14.20;99.90
25024;DHT22;13033;50.936;5.334;2023-04-19T07:04:31;14.20;99.90
25024;DHT22;13033;50.936;5.334;2023-04-19T07:06:57;13.90;99.90
25024;DHT22;13033;50.936;5.334;2023-04-19T07:09:22;14.00;99.90
25024;DHT22;13033;50.936;5.334;2023-04-19T07:11:48;13.90;99.90
25024;DHT22;13033;50.936;5.334;2023-04-19T07:14:16;13.80;99.90
25024;DHT22;13033;50.936;5.334;2023-04-19T07:16:44;13.90;99.90
25024;DHT22;13033;50.936;5.334;2023-04-19T07:19:10;13.80;99.90
25024;DHT22;13033;50.936;5.334;2023-04-19T07:21:36;13.90;99.90
25024;DHT22;13033;50.936;5.334;2023-04-19T07:24:06;14.00;99.90
25024;DHT22;13033;50.936;5.334;2023-04-19T07:26:32;13.90;99.90
25024;DHT22;13033;50.936;5.334;2023-04-19T07:28:59;13.90;99.90
25024;DHT22;13033;50.936;5.334;2023-04-19T07:31:25;13.80;99.90
25024;DHT22;13033;50.936;5.334;2023-04-19T07:33:51;13.70;99.90
25024;DHT22;13033;50.936;5.334;2023-04-19T07:36:17;13.80;99.90
25024;DHT22;13033;50.936;5.334;2023-04-19T07:38:43;13.70;99.90
25024;DHT22;13033;50.936;5.334;2023-04-19T07:41:09;13.70;99.90
25024;DHT22;13033;50.936;5.334;2023-04-19T07:43:35;13.80;99.90
25024;DHT22;13033;50.936;5.334;2023-04-19T07:46:01;13.70;99.90
25024;DHT22;13033;50.936;5.334;2023-04-19T07:48:33;14.00;99.90
25024;DHT22;13033;50.936;5.334;2023-04-19T07:51:07;14.00;99.90
25024;DHT22;13033;50.936;5.334;2023-04-19T07:53:33;13.90;99.90
25024;DHT22;13033;50.936;5.334;2023-04-19T07:55:59;14.00;99.90
25024;DHT22;13033;50.936;5.334;2023-04-19T07:58:24;14.20;99.90
25024;DHT22;13033;50.936;5.334;2023-04-19T08:00:51;14.40;99.90
25024;DHT22;13033;50.936;5.334;2023-04-19T08:03:16;14.60;99.90
25024;DHT22;13033;50.936;5.334;2023-04-19T08:05:42;14.60;99.90
25024;DHT22;13033;50.936;5.334;2023-04-19T08:08:07;14.70;99.90
25024;DHT22;13033;50.936;5.334;2023-04-19T08:10:33;14.70;99.90
25024;DHT22;13033;50.936;5.334;2023-04-19T08:13:00;14.70;99.90
25024;DHT22;13033;50.936;5.334;2023-04-19T08:15:26;14.60;99.90
25024;DHT22;13033;50.936;5.334;2023-04-19T08:17:51;14.70;99.90
25024;DHT22;13033;50.936;5.334;2023-04-19T08:20:17;14.80;99.90
25024;DHT22;13033;50.936;5.334;2023-04-19T08:22:44;14.60;99.90
25024;DHT22;13033;50.936;5.334;2023-04-19T08:25:10;14.50;99.90
25024;DHT22;13033;50.936;5.334;2023-04-19T08:27:35;14.30;99.90
25024;DHT22;13033;50.936;5.334;2023-04-19T08:30:01;14.50;99.90
25024;DHT22;13033;50.936;5.334;2023-04-19T08:32:27;14.50;99.90
25024;DHT22;13033;50.936;5.334;2023-04-19T08:34:53;14.40;99.90
25024;DHT22;13033;50.936;5.334;2023-04-19T08:37:19;14.30;99.90
25024;DHT22;13033;50.936;5.334;2023-04-19T08:39:45;14.40;99.90
25024;DHT22;13033;50.936;5.334;2023-04-19T08:42:10;14.50;99.90
25024;DHT22;13033;50.936;5.334;2023-04-19T08:44:36;14.50;99.90
25024;DHT22;13033;50.936;5.334;2023-04-19T08:47:04;14.60;99.90
25024;DHT22;13033;50.936;5.334;2023-04-19T08:49:38;14.70;99.90
25024;DHT22;13033;50.936;5.334;2023-04-19T08:52:05;14.90;99.90
25024;DHT22;13033;50.936;5.334;2023-04-19T08:54:31;15.20;99.90
25024;DHT22;13033;50.936;5.334;2023-04-19T08:57:00;15.10;99.90
25024;DHT22;13033;50.936;5.334;2023-04-19T08:59:26;15.20;99.90
25024;DHT22;13033;50.936;5.334;2023-04-19T09:01:53;15.30;99.90
25024;DHT22;13033;50.936;5.334;2023-04-19T09:04:20;15.50;99.90
25024;DHT22;13033;50.936;5.334;2023-04-19T09:06:47;15.60;99.90
25024;DHT22;13033;50.936;5.334;2023-04-19T09:11:40;15.70;99.90
25024;DHT22;13033;50.936;5.334;2023-04-19T09:14:14;15.50;99.90
25024;DHT22;13033;50.936;5.334;2023-04-19T09:16:40;15.40;99.90
25024;DHT22;13033;50.936;5.334;2023-04-19T09:19:07;15.60;99.90
25024;DHT22;13033;50.936;5.334;2023-04-19T09:21:37;15.60;99.90
25024;DHT22;13033;50.936;5.334;2023-04-19T09:24:04;15.50;99.90
25024;DHT22;13033;50.936;5.334;2023-04-19T09:26:30;15.40;99.90
25024;DHT22;13033;50.936;5.334;2023-04-19T09:28:58;15.50;99.90
25024;DHT22;13033;50.936;5.334;2023-04-19T09:31:26;15.50;99.90
25024;DHT22;13033;50.936;5.334;2023-04-19T09:33:53;15.50;99.90
25024;DHT22;13033;50.936;5.334;2023-04-19T09:36:28;15.70;99.90
25024;DHT22;13033;50.936;5.334;2023-04-19T09:38:55;15.90;99.90
25024;DHT22;13033;50.936;5.334;2023-04-19T09:41:21;15.90;99.90
25024;DHT22;13033;50.936;5.334;2023-04-19T09:43:47;16.10;99.90
25024;DHT22;13033;50.936;5.334;2023-04-19T09:46:33;16.10;99.90
25024;DHT22;13033;50.936;5.334;2023-04-19T09:49:19;16.30;99.90
25024;DHT22;13033;50.936;5.334;2023-04-19T09:51:52;16.40;99.90
25024;DHT22;13033;50.936;5.334;2023-04-19T09:54:22;16.40;99.90
25024;DHT22;13033;50.936;5.334;2023-04-19T09:56:49;16.60;99.90
25024;DHT22;13033;50.936;5.334;2023-04-19T09:59:15;16.50;99.90
25024;DHT22;13033;50.936;5.334;2023-04-19T10:01:54;16.70;99.90
25024;DHT22;13033;50.936;5.334;2023-04-19T10:04:21;16.70;99.90
25024;DHT22;13033;50.936;5.334;2023-04-19T10:06:53;16.50;99.90
25024;DHT22;13033;50.936;5.334;2023-04-19T10:09:23;16.50;99.90
25024;DHT22;13033;50.936;5.334;2023-04-19T10:11:52;16.60;99.90
25024;DHT22;13033;50.936;5.334;2023-04-19T10:14:24;16.80;99.90
25024;DHT22;13033;50.936;5.334;2023-04-19T10:16:51;16.80;99.90
25024;DHT22;13033;50.936;5.334;2023-04-19T10:19:19;16.60;99.90
25024;DHT22;13033;50.936;5.334;2023-04-19T10:21:47;16.80;99.90
25024;DHT22;13033;50.936;5.334;2023-04-19T10:24:14;17.00;99.90
25024;DHT22;13033;50.936;5.334;2023-04-19T10:32:12;16.60;99.90
25024;DHT22;13033;50.936;5.334;2023-04-19T10:34:39;16.80;99.90
25024;DHT22;13033;50.936;5.334;2023-04-19T10:37:09;16.80;99.90
25024;DHT22;13033;50.936;5.334;2023-04-19T10:39:39;16.70;99.90
25024;DHT22;13033;50.936;5.334;2023-04-19T10:42:06;16.80;99.90
25024;DHT22;13033;50.936;5.334;2023-04-19T10:44:31;16.90;99.90
25024;DHT22;13033;50.936;5.334;2023-04-19T10:47:00;17.00;99.90
25024;DHT22;13033;50.936;5.334;2023-04-19T10:49:29;16.90;99.90
25024;DHT22;13033;50.936;5.334;2023-04-19T10:51:55;16.80;99.10
25024;DHT22;13033;50.936;5.334;2023-04-19T10:54:27;16.90;98.10
25024;DHT22;13033;50.936;5.334;2023-04-19T10:57:07;16.90;97.50
25024;DHT22;13033;50.936;5.334;2023-04-19T10:59:35;16.90;97.30
25024;DHT22;13033;50.936;5.334;2023-04-19T11:02:03;16.80;96.50
25024;DHT22;13033;50.936;5.334;2023-04-19T11:07:05;16.90;95.00
25024;DHT22;13033;50.936;5.334;2023-04-19T11:09:39;17.00;94.60
25024;DHT22;13033;50.936;5.334;2023-04-19T11:14:43;16.60;92.20
25024;DHT22;13033;50.936;5.334;2023-04-19T11:17:19;16.50;92.40
25024;DHT22;13033;50.936;5.334;2023-04-19T11:22:35;16.70;91.30
25024;DHT22;13033;50.936;5.334;2023-04-19T11:25:12;16.60;90.70
25024;DHT22;13033;50.936;5.334;2023-04-19T11:27:40;16.40;88.90
25024;DHT22;13033;50.936;5.334;2023-04-19T11:30:09;16.50;88.60
25024;DHT22;13033;50.936;5.334;2023-04-19T11:32:36;16.60;88.60
25024;DHT22;13033;50.936;5.334;2023-04-19T11:35:06;16.50;85.80
25024;DHT22;13033;50.936;5.334;2023-04-19T11:37:36;16.40;81.60
25024;DHT22;13033;50.936;5.334;2023-04-19T11:40:03;16.40;80.70
25024;DHT22;13033;50.936;5.334;2023-04-19T11:42:31;16.50;79.00
25024;DHT22;13033;50.936;5.334;2023-04-19T11:44:57;16.70;78.40
25024;DHT22;13033;50.936;5.334;2023-04-19T11:47:25;16.70;75.10
25024;DHT22;13033;50.936;5.334;2023-04-19T11:49:53;16.40;76.00
25024;DHT22;13033;50.936;5.334;2023-04-19T11:52:23;16.50;78.30
25024;DHT22;13033;50.936;5.334;2023-04-19T11:54:53;16.60;79.00
25024;DHT22;13033;50.936;5.334;2023-04-19T11:57:29;16.80;78.00
25024;DHT22;13033;50.936;5.334;2023-04-19T12:00:04;17.10;76.70
25024;DHT22;13033;50.936;5.334;2023-04-19T12:02:42;17.20;72.80
25024;DHT22;13033;50.936;5.334;2023-04-19T12:05:14;17.10;69.30
25024;DHT22;13033;50.936;5.334;2023-04-19T12:08:02;17.10;66.80
25024;DHT22;13033;50.936;5.334;2023-04-19T12:10:29;17.00;64.90
25024;DHT22;13033;50.936;5.334;2023-04-19T12:12:55;17.00;62.70
25024;DHT22;13033;50.936;5.334;2023-04-19T12:15:21;17.30;62.50
25024;DHT22;13033;50.936;5.334;2023-04-19T12:18:00;17.40;61.60
25024;DHT22;13033;50.936;5.334;2023-04-19T12:20:34;17.30;62.20
25024;DHT22;13033;50.936;5.334;2023-04-19T12:23:00;17.50;62.00
25024;DHT22;13033;50.936;5.334;2023-04-19T12:25:30;17.60;62.00
25024;DHT22;13033;50.936;5.334;2023-04-19T12:28:01;17.10;58.10
25024;DHT22;13033;50.936;5.334;2023-04-19T12:30:27;16.80;57.70
25024;DHT22;13033;50.936;5.334;2023-04-19T12:32:54;16.70;58.20
25024;DHT22;13033;50.936;5.334;2023-04-19T12:35:24;16.70;57.50
25024;DHT22;13033;50.936;5.334;2023-04-19T12:37:52;16.90;55.10
25024;DHT22;13033;50.936;5.334;2023-04-19T12:40:18;17.10;55.10
25024;DHT22;13033;50.936;5.334;2023-04-19T12:42:43;17.10;55.00
25024;DHT22;13033;50.936;5.334;2023-04-19T12:45:10;17.30;55.40
25024;DHT22;13033;50.936;5.334;2023-04-19T12:47:36;17.50;55.70
25024;DHT22;13033;50.936;5.334;2023-04-19T12:50:02;17.40;55.70
25024;DHT22;13033;50.936;5.334;2023-04-19T12:52:28;17.10;56.70
25024;DHT22;13033;50.936;5.334;2023-04-19T12:54:53;17.20;55.30
25024;DHT22;13033;50.936;5.334;2023-04-19T12:57:19;17.40;55.90
25024;DHT22;13033;50.936;5.334;2023-04-19T12:59:44;17.30;54.50
25024;DHT22;13033;50.936;5.334;2023-04-19T13:02:10;17.40;53.20
25024;DHT22;13033;50.936;5.334;2023-04-19T13:04:36;17.50;54.60
25024;DHT22;13033;50.936;5.334;2023-04-19T13:07:01;17.50;54.40
25024;DHT22;13033;50.936;5.334;2023-04-19T13:09:27;17.40;54.60
25024;DHT22;13033;50.936;5.334;2023-04-19T13:11:59;17.30;54.70
25024;DHT22;13033;50.936;5.334;2023-04-19T13:14:25;17.30;53.00
25024;DHT22;13033;50.936;5.334;2023-04-19T13:16:51;17.00;53.10
25024;DHT22;13033;50.936;5.334;2023-04-19T13:19:17;17.00;51.80
25024;DHT22;13033;50.936;5.334;2023-04-19T13:21:43;16.90;51.90
25024;DHT22;13033;50.936;5.334;2023-04-19T13:24:08;17.00;52.20
25024;DHT22;13033;50.936;5.334;2023-04-19T13:26:34;17.10;53.30
25024;DHT22;13033;50.936;5.334;2023-04-19T13:29:00;16.90;52.90
25024;DHT22;13033;50.936;5.334;2023-04-19T13:31:26;16.80;52.80
25024;DHT22;13033;50.936;5.334;2023-04-19T13:33:52;17.00;53.00
25024;DHT22;13033;50.936;5.334;2023-04-19T13:36:18;17.00;53.60
25024;DHT22;13033;50.936;5.334;2023-04-19T13:38:44;17.20;53.50
25024;DHT22;13033;50.936;5.334;2023-04-19T13:41:10;17.50;53.10
25024;DHT22;13033;50.936;5.334;2023-04-19T13:43:36;17.40;50.50
25024;DHT22;13033;50.936;5.334;2023-04-19T13:46:01;17.50;50.50
25024;DHT22;13033;50.936;5.334;2023-04-19T13:48:27;17.20;50.50
25024;DHT22;13033;50.936;5.334;2023-04-19T13:50:57;16.90;50.20
25024;DHT22;13033;50.936;5.334;2023-04-19T13:53:24;17.00;50.10
25024;DHT22;13033;50.936;5.334;2023-04-19T13:55:51;16.90;49.30
25024;DHT22;13033;50.936;5.334;2023-04-19T13:58:17;16.90;49.70
25024;DHT22;13033;50.936;5.334;2023-04-19T14:00:43;16.80;49.90
25024;DHT22;13033;50.936;5.334;2023-04-19T14:03:09;16.90;50.50
25024;DHT22;13033;50.936;5.334;2023-04-19T14:05:35;17.00;50.00
25024;DHT22;13033;50.936;5.334;2023-04-19T14:08:01;17.10;50.40
25024;DHT22;13033;50.936;5.334;2023-04-19T14:10:26;17.00;50.00
25024;DHT22;13033;50.936;5.334;2023-04-19T14:12:52;16.80;49.10
25024;DHT22;13033;50.936;5.334;2023-04-19T14:15:19;16.80;49.20
25024;DHT22;13033;50.936;5.334;2023-04-19T14:17:48;16.80;49.30
25024;DHT22;13033;50.936;5.334;2023-04-19T14:20:15;16.70;49.30
25024;DHT22;13033;50.936;5.334;2023-04-19T14:22:41;16.70;49.00
25024;DHT22;13033;50.936;5.334;2023-04-19T14:25:08;16.60;48.70
25024;DHT22;13033;50.936;5.334;2023-04-19T14:27:33;16.40;48.90
25024;DHT22;13033;50.936;5.334;2023-04-19T14:29:59;16.50;49.00
25024;DHT22;13033;50.936;5.334;2023-04-19T14:32:25;17.10;49.10
25024;DHT22;13033;50.936;5.334;2023-04-19T14:34:51;18.40;47.90
25024;DHT22;13033;50.936;5.334;2023-04-19T14:37:17;19.20;44.60
25024;DHT22;13033;50.936;5.334;2023-04-19T14:39:46;19.30;43.10
25024;DHT22;13033;50.936;5.334;2023-04-19T14:42:12;20.00;42.30
25024;DHT22;13033;50.936;5.334;2023-04-19T14:44:38;20.40;41.50
25024;DHT22;13033;50.936;5.334;2023-04-19T14:47:04;20.90;40.50
25024;DHT22;13033;50.936;5.334;2023-04-19T14:49:29;21.20;40.70
25024;DHT22;13033;50.936;5.334;2023-04-19T14:51:55;21.20;40.60
25024;DHT22;13033;50.936;5.334;2023-04-19T14:54:21;20.90;40.60
25024;DHT22;13033;50.936;5.334;2023-04-19T14:56:47;21.40;40.00
25024;DHT22;13033;50.936;5.334;2023-04-19T14:59:12;21.60;40.50
25024;DHT22;13033;50.936;5.334;2023-04-19T15:01:38;21.80;40.10
25024;DHT22;13033;50.936;5.334;2023-04-19T15:04:03;21.80;39.10
25024;DHT22;13033;50.936;5.334;2023-04-19T15:06:29;21.90;39.00
25024;DHT22;13033;50.936;5.334;2023-04-19T15:08:56;22.10;38.30
25024;DHT22;13033;50.936;5.334;2023-04-19T15:11:21;21.80;37.80
25024;DHT22;13033;50.936;5.334;2023-04-19T15:13:48;22.30;37.60
25024;DHT22;13033;50.936;5.334;2023-04-19T15:16:13;22.20;37.10
25024;DHT22;13033;50.936;5.334;2023-04-19T15:18:39;22.30;37.40
25024;DHT22;13033;50.936;5.334;2023-04-19T15:21:05;22.90;37.10
25024;DHT22;13033;50.936;5.334;2023-04-19T15:23:30;23.40;36.60
25024;DHT22;13033;50.936;5.334;2023-04-19T15:25:56;23.40;36.60
25024;DHT22;13033;50.936;5.334;2023-04-19T15:28:23;23.50;36.80
25024;DHT22;13033;50.936;5.334;2023-04-19T15:31:00;23.10;36.90
25024;DHT22;13033;50.936;5.334;2023-04-19T15:33:26;22.40;37.80
25024;DHT22;13033;50.936;5.334;2023-04-19T15:35:53;22.20;38.20
25024;DHT22;13033;50.936;5.334;2023-04-19T15:38:24;22.30;36.70
25024;DHT22;13033;50.936;5.334;2023-04-19T15:40:50;22.40;37.10
25024;DHT22;13033;50.936;5.334;2023-04-19T15:43:16;22.70;36.60